Time;durP1;ratioP1;P1;durP2;ratioP2;P2;SDS_P1;SDS_P2;PMS_P1;PMS_P2;Temp;Humidity;BMP_temperature;BMP_pressure;BME280_temperature;BME280_humidity;BME280_pressure;Samples;Min_cycle;Max_cycle;Signal;HPM_P1;HPM_P2
2021/09/20 00:00:22;;;;;;;1.62;0.50;;;;;;;11.25;66.38;99592.12;1709449;81;21157;-59
2021/09/20 00:02:49;;;;;;;1.47;0.50;;;;;;;11.21;66.02;99585.97;1727610;81;21572;-59
2021/09/20 00:05:18;;;;;;;3.55;0.75;;;;;;;11.12;66.33;99583.23;1729230;81;21623;-58
2021/09/20 00:07:45;;;;;;;1.60;0.57;;;;;;;11.08;66.52;99582.37;1737298;81;21101;-57
2021/09/20 00:10:12;;;;;;;3.42;0.72;;;;;;;11.06;66.71;99582.52;1734959;81;21145;-58
2021/09/20 00:12:42;;;;;;;2.33;0.57;;;;;;;11.12;66.52;99577.15;1730830;81;21249;-58
2021/09/20 00:15:13;;;;;;;1.40;0.45;;;;;;;11.18;66.55;99579.67;1729444;81;21050;-58
2021/09/20 00:17:40;;;;;;;3.05;0.88;;;;;;;11.16;66.38;99574.55;1733351;81;21109;-58
2021/09/20 00:20:12;;;;;;;3.25;0.72;;;;;;;11.14;66.43;99583.09;1733548;81;21116;-57
2021/09/20 00:22:44;;;;;;;2.02;0.60;;;;;;;11.09;66.72;99565.59;1706076;81;21055;-57
2021/09/20 00:25:13;;;;;;;2.10;0.60;;;;;;;11.06;66.57;99575.94;1729785;81;21575;-58
2021/09/20 00:27:40;;;;;;;1.67;0.60;;;;;;;11.03;66.77;99564.38;1733523;81;21595;-58
2021/09/20 00:30:10;;;;;;;3.92;0.70;;;;;;;11.03;66.75;99566.16;1733604;81;21061;-58
2021/09/20 00:32:39;;;;;;;2.02;0.60;;;;;;;11.09;66.56;99570.85;1727324;79;21037;-58
2021/09/20 00:35:08;;;;;;;3.35;0.72;;;;;;;11.10;66.48;99577.78;1751113;79;21032;-59
2021/09/20 00:37:36;;;;;;;2.80;0.80;;;;;;;11.05;66.59;99560.28;1746654;81;21168;-58
2021/09/20 00:40:04;;;;;;;1.75;0.50;;;;;;;11.03;66.71;99556.48;1747589;81;21126;-58
2021/09/20 00:42:32;;;;;;;1.35;0.42;;;;;;;10.98;66.75;99554.77;1758190;79;21055;-58
2021/09/20 00:44:59;;;;;;;2.55;0.93;;;;;;;10.96;66.96;99558.87;1750384;81;21084;-58
2021/09/20 00:47:27;;;;;;;3.98;0.60;;;;;;;10.96;66.83;99555.38;1755867;79;21063;-58
2021/09/20 00:49:59;;;;;;;2.37;0.60;;;;;;;11.02;66.71;99557.94;1743849;81;21542;-59
2021/09/20 00:52:26;;;;;;;1.85;0.60;;;;;;;11.05;66.58;99560.28;1743726;79;21012;-59
2021/09/20 00:54:55;;;;;;;2.75;0.50;;;;;;;11.03;66.58;99562.21;1746364;79;21744;-58
2021/09/20 00:57:21;;;;;;;1.62;0.53;;;;;;;11.00;66.77;99560.72;1751232;79;21103;-58
2021/09/20 00:59:50;;;;;;;1.67;0.50;;;;;;;10.96;66.86;99561.96;1750969;79;21165;-58
2021/09/20 01:02:18;;;;;;;2.58;0.70;;;;;;;10.94;66.92;99559.97;1722484;81;21044;-58
2021/09/20 01:04:47;;;;;;;2.35;0.70;;;;;;;10.95;66.88;99558.52;1743162;79;21765;-58
2021/09/20 01:07:15;;;;;;;2.25;0.50;;;;;;;11.04;66.72;99558.62;1751034;79;20986;-58
2021/09/20 01:09:45;;;;;;;1.67;0.50;;;;;;;11.07;66.58;99553.06;1747813;81;21061;-59
2021/09/20 01:12:16;;;;;;;1.37;0.47;;;;;;;11.06;66.61;99561.92;1747135;81;21035;-58
2021/09/20 01:14:43;;;;;;;4.25;0.80;;;;;;;11.02;66.47;99559.26;1753619;81;21026;-59
2021/09/20 01:17:11;;;;;;;2.33;0.78;;;;;;;10.97;67.00;99551.29;1715237;82;21027;-58
2021/09/20 01:19:41;;;;;;;1.95;0.50;;;;;;;10.98;67.08;99556.09;1717766;83;21049;-59
2021/09/20 01:22:16;;;;;;;2.02;0.70;;;;;;;11.00;67.17;99546.23;1710032;81;21075;-58
2021/09/20 01:24:46;;;;;;;;;;;;;;;11.07;66.85;99556.52;1693285;83;21083;-60
2021/09/20 01:27:16;;;;;;;1.57;0.37;;;;;;;11.07;66.67;99548.62;1686423;84;21106;-59
2021/09/20 01:29:43;;;;;;;3.05;0.70;;;;;;;11.00;66.91;99552.82;1709968;83;21492;-60
2021/09/20 01:32:10;;;;;;;1.80;0.57;;;;;;;10.99;66.91;99550.33;1691170;83;21039;-60
2021/09/20 01:34:38;;;;;;;1.45;0.45;;;;;;;10.99;66.99;99552.96;1716283;83;21628;-59
2021/09/20 01:37:07;;;;;;;2.40;0.68;;;;;;;10.95;67.06;99547.98;1714885;83;21024;-59
2021/09/20 01:39:36;;;;;;;2.15;0.50;;;;;;;10.95;67.01;99551.93;1714271;83;21327;-58
2021/09/20 01:42:04;;;;;;;2.47;0.70;;;;;;;11.01;67.01;99543.11;1731429;80;21085;-59
2021/09/20 01:44:30;;;;;;;1.80;0.60;;;;;;;11.03;66.90;99550.36;1729880;81;21010;-59
2021/09/20 01:46:58;;;;;;;3.08;0.68;;;;;;;11.02;66.89;99546.91;1740728;80;21104;-59
2021/09/20 01:49:26;;;;;;;2.47;0.85;;;;;;;11.01;67.04;99547.06;1746500;79;21487;-59
2021/09/20 01:51:52;;;;;;;2.37;0.72;;;;;;;11.00;66.91;99558.08;1741090;81;21363;-60
2021/09/20 01:54:19;;;;;;;1.80;0.47;;;;;;;10.96;66.95;99540.44;1745414;80;21581;-59
2021/09/20 01:56:47;;;;;;;1.57;0.45;;;;;;;10.96;67.06;99543.07;1748451;81;21057;-60
2021/09/20 01:59:15;;;;;;;3.00;0.75;;;;;;;11.02;67.04;99546.91;1747602;80;21084;-59
2021/09/20 02:01:44;;;;;;;1.65;0.50;;;;;;;11.06;66.83;99540.86;1746400;81;21935;-59
2021/09/20 02:04:11;;;;;;;2.00;0.70;;;;;;;11.04;67.03;99542.33;1749910;81;21808;-58
2021/09/20 02:06:39;;;;;;;2.40;0.75;;;;;;;10.95;67.30;99540.09;1740441;81;21530;-60
2021/09/20 02:09:08;;;;;;;1.92;0.50;;;;;;;10.89;67.39;99548.59;1752216;80;21542;-59
2021/09/20 02:11:36;;;;;;;3.08;0.50;;;;;;;10.82;67.45;99535.64;1739780;81;21599;-59
2021/09/20 02:14:04;;;;;;;2.25;0.60;;;;;;;10.81;67.81;99538.42;1743740;81;21555;-58
2021/09/20 02:16:30;;;;;;;2.62;0.70;;;;;;;10.84;67.92;99534.19;1743720;81;21168;-59
2021/09/20 02:19:00;;;;;;;1.35;0.47;;;;;;;10.86;67.62;99538.81;1747665;80;21146;-60
2021/09/20 02:21:30;;;;;;;3.17;0.78;;;;;;;10.81;67.79;99545.00;1743742;81;21056;-59
2021/09/20 02:23:58;;;;;;;2.08;0.70;;;;;;;10.75;67.71;99528.00;1744343;80;21106;-59
2021/09/20 02:26:26;;;;;;;0.90;0.40;;;;;;;10.71;67.98;99527.46;1740670;80;21090;-59
2021/09/20 02:28:55;;;;;;;2.58;0.65;;;;;;;10.72;68.30;99528.28;1748641;81;21139;-59
2021/09/20 02:31:21;;;;;;;2.37;0.50;;;;;;;10.80;68.25;99540.23;1747643;80;21090;-58
2021/09/20 02:33:48;;;;;;;1.55;0.40;;;;;;;10.81;68.04;99534.00;1747459;81;21059;-60
2021/09/20 02:36:15;;;;;;;2.87;0.70;;;;;;;10.80;68.33;99532.34;1723822;80;21084;-58
2021/09/20 02:38:41;;;;;;;3.92;0.60;;;;;;;10.75;68.47;99530.63;1743854;81;22593;-59
2021/09/20 02:41:10;;;;;;;7.53;0.75;;;;;;;10.74;68.69;99530.27;1743023;80;21096;-58
2021/09/20 02:43:38;;;;;;;1.95;0.40;;;;;;;10.72;68.72;99533.55;1725195;81;21103;-59
2021/09/20 02:46:08;;;;;;;1.55;0.35;;;;;;;10.77;68.66;99529.49;1744136;80;21036;-59
2021/09/20 02:48:35;;;;;;;2.90;1.00;;;;;;;10.83;68.52;99537.31;1748449;80;21523;-59
2021/09/20 02:51:02;;;;;;;1.50;0.40;;;;;;;10.80;68.73;99537.59;1746949;81;21071;-60
2021/09/20 02:53:32;;;;;;;1.92;0.50;;;;;;;10.76;69.07;99527.03;1744934;80;21961;-59
2021/09/20 02:56:04;;;;;;;0.65;0.23;;;;;;;10.74;68.94;99526.33;1735943;81;21102;-58
2021/09/20 02:58:31;;;;;;;1.12;0.50;;;;;;;10.73;69.12;99539.16;1722938;81;21131;-59
2021/09/20 03:00:58;;;;;;;1.57;0.50;;;;;;;10.76;68.97;99520.45;1741171;81;21103;-58
2021/09/20 03:03:27;;;;;;;2.45;0.78;;;;;;;10.76;69.00;99523.91;1745296;81;21651;-58
2021/09/20 03:05:53;;;;;;;1.95;0.42;;;;;;;10.75;69.05;99522.73;1747445;80;21083;-57
2021/09/20 03:08:23;;;;;;;2.00;0.40;;;;;;;10.71;69.33;99531.91;1747354;80;21480;-58
2021/09/20 03:10:51;;;;;;;1.20;0.30;;;;;;;10.68;69.48;99528.24;1744533;80;21095;-57
2021/09/20 03:13:18;;;;;;;6.70;0.50;;;;;;;10.65;69.95;99532.47;1730429;80;21099;-56
2021/09/20 03:15:46;;;;;;;0.95;0.30;;;;;;;10.69;69.85;99531.19;1740612;81;21063;-57
2021/09/20 03:18:13;;;;;;;4.60;0.50;;;;;;;10.71;69.55;99526.14;1751314;80;21059;-58
2021/09/20 03:20:41;;;;;;;0.85;0.30;;;;;;;10.72;69.52;99529.59;1743515;81;21087;-56
2021/09/20 03:23:09;;;;;;;1.92;0.42;;;;;;;10.69;69.65;99523.30;1748974;80;21149;-57
2021/09/20 03:25:35;;;;;;;2.02;0.45;;;;;;;10.62;70.19;99533.57;1744315;80;21075;-57
2021/09/20 03:28:06;;;;;;;1.70;0.50;;;;;;;10.61;70.48;99529.30;1736723;81;21055;-56
2021/09/20 03:30:35;;;;;;;1.92;0.60;;;;;;;10.68;70.51;99532.19;1747965;80;21075;-58
2021/09/20 03:33:03;;;;;;;2.40;0.68;;;;;;;10.68;70.38;99529.06;1738528;81;21554;-56
2021/09/20 03:35:31;;;;;;;1.65;0.42;;;;;;;10.65;70.93;99539.86;1750959;79;62690;-60
2021/09/20 03:37:58;;;;;;;2.27;0.53;;;;;;;10.58;71.56;99531.72;1719101;82;21027;-61
2021/09/20 03:40:24;;;;;;;2.98;0.53;;;;;;;10.54;71.85;99543.52;1710153;81;21542;-60
2021/09/20 03:42:51;;;;;;;1.50;0.50;;;;;;;10.54;72.02;99551.41;1717143;81;21209;-59
2021/09/20 03:45:17;;;;;;;1.62;0.42;;;;;;;10.58;71.98;99537.48;1705614;81;21007;-58
2021/09/20 03:47:44;;;;;;;1.37;0.35;;;;;;;10.63;71.97;99542.31;1704685;80;21575;-60
2021/09/20 03:50:10;;;;;;;1.00;0.30;;;;;;;10.63;72.07;99546.27;1730375;80;21574;-57
2021/09/20 03:52:39;;;;;;;2.00;0.50;;;;;;;10.60;72.29;99541.61;1733176;80;22484;-61
2021/09/20 03:55:07;;;;;;;1.37;0.45;;;;;;;10.56;72.65;99558.66;1690700;83;21197;-60
2021/09/20 03:57:33;;;;;;;2.20;0.40;;;;;;;10.56;72.50;99552.58;1667424;84;21004;-61
2021/09/20 04:00:00;;;;;;;2.12;0.70;;;;;;;10.58;72.57;99555.39;1662688;83;21031;-59
2021/09/20 04:02:28;;;;;;;1.55;0.60;;;;;;;10.62;72.76;99558.56;1715953;81;21024;-63
2021/09/20 04:04:54;;;;;;;1.57;0.53;;;;;;;10.62;72.66;99561.69;1747529;80;21082;-59
2021/09/20 04:07:22;;;;;;;2.83;0.70;;;;;;;10.54;72.72;99565.87;1740610;80;22411;-60
2021/09/20 04:12:35;;;;;;;1.85;0.40;;;;;;;10.55;73.09;99565.38;1782149;78;22613;-57
2021/09/20 04:15:03;;;;;;;4.17;0.70;;;;;;;10.54;73.12;99570.28;1741460;80;21078;-57
2021/09/20 04:17:29;;;;;;;1.32;0.40;;;;;;;10.55;73.18;99578.03;1707535;81;21200;-58
2021/09/20 04:19:56;;;;;;;1.35;0.50;;;;;;;10.57;72.83;99573.95;1704298;81;21845;-56
2021/09/20 04:22:24;;;;;;;1.40;0.40;;;;;;;10.52;73.03;99578.34;1709258;81;21113;-60
2021/09/20 04:24:52;;;;;;;3.45;0.60;;;;;;;10.48;73.33;99571.70;1710700;81;21093;-56
2021/09/20 04:27:20;;;;;;;2.40;0.62;;;;;;;10.51;73.33;99577.17;1708806;81;21088;-57
2021/09/20 04:29:48;;;;;;;2.10;0.65;;;;;;;10.59;73.18;99587.32;1708070;81;21092;-56
2021/09/20 04:32:16;;;;;;;1.75;0.57;;;;;;;10.65;72.95;99584.59;1712318;81;21070;-56
2021/09/20 04:34:43;;;;;;;1.42;0.50;;;;;;;10.66;72.65;99584.09;1670502;83;21085;-57
2021/09/20 04:37:14;;;;;;;2.37;0.68;;;;;;;10.59;72.57;99593.05;1703958;82;21098;-57
2021/09/20 04:39:40;;;;;;;1.65;0.60;;;;;;;10.54;72.88;99590.86;1700716;82;21133;-58
2021/09/20 04:42:09;;;;;;;1.52;0.40;;;;;;;10.53;73.12;99606.78;1704870;82;21372;-57
2021/09/20 04:44:36;;;;;;;2.60;0.75;;;;;;;10.57;72.99;99590.59;1704719;82;21070;-56
2021/09/20 04:47:04;;;;;;;2.50;0.60;;;;;;;10.63;73.06;99589.17;1710001;82;22449;-57
2021/09/20 04:49:33;;;;;;;2.17;0.47;;;;;;;10.68;73.04;99595.33;1707406;82;21139;-57
2021/09/20 04:52:00;;;;;;;2.25;0.75;;;;;;;10.69;72.92;99593.02;1708441;82;21083;-59
2021/09/20 04:54:27;;;;;;;1.57;0.50;;;;;;;10.68;72.85;99590.07;1676232;83;21088;-58
2021/09/20 04:56:58;;;;;;;1.70;0.47;;;;;;;10.71;72.66;99595.88;1706242;82;21095;-58
2021/09/20 04:59:25;;;;;;;2.35;0.55;;;;;;;10.76;72.54;99605.48;1678892;82;21140;-57
2021/09/20 05:01:53;;;;;;;2.30;0.85;;;;;;;10.80;72.29;99596.81;1706325;82;21098;-59
2021/09/20 05:04:20;;;;;;;3.75;0.75;;;;;;;10.83;71.95;99603.11;1690116;82;21505;-58
2021/09/20 05:06:48;;;;;;;2.02;0.68;;;;;;;10.84;71.87;99602.11;1702709;82;21553;-56
2021/09/20 05:09:17;;;;;;;0.82;0.30;;;;;;;10.82;71.63;99610.64;1703657;82;21110;-66
2021/09/20 05:11:45;;;;;;;1.87;0.60;;;;;;;10.79;71.89;99609.61;1697950;82;21086;-67
2021/09/20 05:14:17;;;;;;;2.00;0.60;;;;;;;10.77;72.30;99618.14;1692322;83;21060;-69
2021/09/20 05:16:44;;;;;;;2.35;0.65;;;;;;;10.82;72.17;99609.83;1694787;83;21576;-68
2021/09/20 05:19:12;;;;;;;2.15;0.70;;;;;;;10.84;72.39;99618.40;1689054;83;21206;-68
2021/09/20 05:21:40;;;;;;;2.20;0.60;;;;;;;10.86;72.15;99617.77;1674319;84;21122;-69
2021/09/20 05:24:06;;;;;;;1.37;0.50;;;;;;;10.82;72.15;99620.35;1723740;80;22222;-59
2021/09/20 05:26:33;;;;;;;3.62;0.68;;;;;;;10.79;72.44;99620.14;1734350;80;21090;-59
2021/09/20 05:29:00;;;;;;;2.02;0.82;;;;;;;10.82;72.59;99625.13;1704084;82;21098;-59
2021/09/20 05:31:27;;;;;;;2.17;0.62;;;;;;;10.86;72.37;99624.34;1710255;82;23360;-59
2021/09/20 05:33:55;;;;;;;1.30;0.50;;;;;;;10.93;72.06;99629.40;1703713;82;21070;-59
2021/09/20 05:36:24;;;;;;;1.50;0.50;;;;;;;10.97;71.78;99626.31;1735390;80;21238;-60
2021/09/20 05:38:54;;;;;;;1.87;0.78;;;;;;;10.94;71.89;99639.79;1737547;81;21421;-60
2021/09/20 05:41:21;;;;;;;1.72;0.62;;;;;;;10.91;71.88;99637.44;1707686;82;21082;-59
2021/09/20 05:43:47;;;;;;;3.25;0.70;;;;;;;10.88;72.03;99639.03;1679769;82;21040;-59
2021/09/20 05:46:13;;;;;;;1.77;0.47;;;;;;;10.89;71.99;99645.97;1669746;83;21102;-59
2021/09/20 05:48:39;;;;;;;3.30;0.80;;;;;;;10.95;71.85;99644.06;1695028;83;21213;-59
2021/09/20 05:51:07;;;;;;;6.42;0.75;;;;;;;11.04;71.92;99644.17;1676532;82;21149;-58
2021/09/20 05:53:35;;;;;;;2.17;0.55;;;;;;;11.10;71.81;99655.45;1710574;82;21027;-59
2021/09/20 05:56:01;;;;;;;2.67;0.78;;;;;;;11.09;71.12;99655.10;1696495;83;21075;-57
2021/09/20 05:58:27;;;;;;;1.57;0.60;;;;;;;11.06;71.29;99661.50;1688182;82;21717;-58
2021/09/20 06:00:54;;;;;;;1.85;0.60;;;;;;;11.03;71.30;99672.31;1694031;83;21138;-57
2021/09/20 06:03:20;;;;;;;2.37;0.70;;;;;;;11.03;71.40;99664.88;1691247;82;21063;-58
2021/09/20 06:05:47;;;;;;;2.67;0.78;;;;;;;11.11;71.30;99667.16;1694438;82;21180;-58
2021/09/20 06:08:14;;;;;;;3.50;0.82;;;;;;;11.15;70.79;99669.02;1675202;83;21106;-58
2021/09/20 06:10:40;;;;;;;1.67;0.62;;;;;;;11.12;70.86;99671.94;1692084;83;21302;-58
2021/09/20 06:13:07;;;;;;;2.12;0.62;;;;;;;11.08;70.99;99670.58;1680258;83;22293;-58
2021/09/20 06:15:35;;;;;;;2.17;0.75;;;;;;;11.03;71.15;99674.09;1696663;83;21119;-60
2021/09/20 06:18:07;;;;;;;4.83;1.20;;;;;;;11.01;71.26;99681.31;1698294;83;21154;-67
2021/09/20 06:20:35;;;;;;;3.37;0.90;;;;;;;11.06;71.31;99684.34;1695615;82;21167;-67
2021/09/20 06:23:04;;;;;;;2.72;0.85;;;;;;;11.11;71.06;99688.69;1689920;83;21102;-66
2021/09/20 06:25:30;;;;;;;2.67;0.70;;;;;;;11.16;71.04;99685.14;1692079;83;21191;-67
2021/09/20 06:27:57;;;;;;;1.90;0.50;;;;;;;11.19;71.17;99690.13;1692878;83;21574;-67
2021/09/20 06:30:23;;;;;;;2.70;0.75;;;;;;;11.18;71.06;99696.38;1682828;83;21086;-68
2021/09/20 06:32:49;;;;;;;1.25;0.55;;;;;;;11.17;71.10;99692.08;1695542;83;22390;-66
2021/09/20 06:35:16;;;;;;;2.02;0.80;;;;;;;11.22;71.22;99690.34;1698348;83;21035;-68
2021/09/20 06:37:43;;;;;;;2.20;0.85;;;;;;;11.29;71.19;99688.78;1692889;83;21125;-66
2021/09/20 06:40:10;;;;;;;2.22;0.70;;;;;;;11.36;71.17;99696.44;1695126;83;21046;-65
2021/09/20 06:42:37;;;;;;;2.85;1.00;;;;;;;11.34;71.10;99700.53;1694013;83;21106;-66
2021/09/20 06:45:05;;;;;;;2.95;1.00;;;;;;;11.33;71.14;99701.98;1668045;83;21573;-65
2021/09/20 06:47:32;;;;;;;2.37;0.78;;;;;;;11.29;71.18;99697.50;1697888;83;21078;-65
2021/09/20 06:49:58;;;;;;;2.33;0.88;;;;;;;11.28;71.13;99701.59;1687436;82;21597;-66
2021/09/20 06:52:25;;;;;;;3.05;0.90;;;;;;;11.32;70.74;99701.17;1696491;82;21079;-65
2021/09/20 06:54:51;;;;;;;2.83;0.90;;;;;;;11.36;71.09;99704.84;1695570;83;21024;-64
2021/09/20 06:57:17;;;;;;;3.00;0.93;;;;;;;11.41;70.83;99711.81;1668917;83;21183;-65
2021/09/20 06:59:44;;;;;;;2.95;0.82;;;;;;;11.42;71.01;99716.12;1695481;83;21588;-64
2021/09/20 07:02:10;;;;;;;3.90;0.95;;;;;;;11.41;70.76;99715.27;1667431;83;21154;-64
2021/09/20 07:04:37;;;;;;;2.95;0.85;;;;;;;11.48;70.65;99716.84;1669563;83;21769;-65
2021/09/20 07:07:04;;;;;;;1.92;0.55;;;;;;;11.55;70.38;99720.58;1693571;83;21036;-68
2021/09/20 07:09:31;;;;;;;3.45;1.20;;;;;;;11.63;69.97;99723.31;1698936;82;21583;-66
2021/09/20 07:11:57;;;;;;;4.00;0.82;;;;;;;11.60;69.72;99728.02;1671595;83;21405;-65
2021/09/20 07:14:24;;;;;;;2.22;0.72;;;;;;;11.60;70.00;99726.70;1697739;82;21060;-65
2021/09/20 07:16:50;;;;;;;2.77;0.80;;;;;;;11.63;70.01;99722.00;1678863;83;21513;-64
2021/09/20 07:19:17;;;;;;;3.00;1.07;;;;;;;11.67;70.15;99739.16;1700709;83;21133;-64
2021/09/20 07:21:44;;;;;;;2.58;0.78;;;;;;;11.74;69.68;99733.32;1698941;83;22241;-65
2021/09/20 07:24:10;;;;;;;2.35;0.78;;;;;;;11.81;69.78;99732.57;1695113;83;21079;-58
2021/09/20 07:26:37;;;;;;;3.45;1.05;;;;;;;11.86;69.45;99744.00;1699570;82;21939;-57
2021/09/20 07:29:04;;;;;;;3.72;0.98;;;;;;;11.86;69.42;99734.77;1698948;83;21134;-59
2021/09/20 07:31:32;;;;;;;2.42;0.70;;;;;;;11.82;69.33;99746.60;1700208;82;21082;-59
2021/09/20 07:33:58;;;;;;;2.65;0.90;;;;;;;11.82;69.66;99753.19;1690091;83;22323;-58
2021/09/20 07:36:25;;;;;;;2.50;0.72;;;;;;;11.90;69.47;99744.89;1673035;83;21157;-59
2021/09/20 07:38:52;;;;;;;4.05;1.27;;;;;;;11.96;69.29;99750.08;1675058;83;21548;-59
2021/09/20 07:41:18;;;;;;;2.12;0.65;;;;;;;11.97;69.36;99753.53;1693556;83;21165;-59
2021/09/20 07:43:45;;;;;;;2.08;0.70;;;;;;;11.90;69.20;99752.80;1673299;83;21489;-57
2021/09/20 07:46:14;;;;;;;1.72;0.68;;;;;;;11.85;69.28;99752.88;1702695;83;21089;-59
2021/09/20 07:48:40;;;;;;;3.17;0.80;;;;;;;11.81;69.71;99748.88;1697529;83;21694;-59
2021/09/20 07:51:06;;;;;;;4.22;1.05;;;;;;;11.86;70.22;99751.91;1675364;83;21177;-58
2021/09/20 07:53:33;;;;;;;2.75;0.75;;;;;;;12.01;69.46;99762.33;1702276;82;21020;-59
2021/09/20 07:55:59;;;;;;;2.83;0.82;;;;;;;12.06;68.90;99750.03;1695908;83;21054;-59
2021/09/20 07:58:26;;;;;;;3.95;1.10;;;;;;;12.02;69.03;99746.86;1679841;83;22145;-59
2021/09/20 08:00:52;;;;;;;5.78;1.15;;;;;;;11.99;69.46;99749.79;1692082;83;21138;-56
2021/09/20 08:03:18;;;;;;;3.05;0.90;;;;;;;11.98;69.23;99757.34;1698458;82;21126;-58
2021/09/20 08:05:45;;;;;;;4.08;1.15;;;;;;;12.00;69.36;99760.69;1681810;83;21612;-57
2021/09/20 08:08:12;;;;;;;2.92;0.98;;;;;;;12.11;69.21;99763.59;1699626;83;21538;-56
2021/09/20 08:10:39;;;;;;;3.12;1.20;;;;;;;12.17;68.84;99764.34;1682263;83;21086;-56
2021/09/20 08:13:07;;;;;;;2.37;0.80;;;;;;;12.19;68.90;99761.55;1696697;83;21523;-56
2021/09/20 08:15:34;;;;;;;2.67;1.00;;;;;;;12.20;69.03;99763.20;1701189;83;21067;-56
2021/09/20 08:18:00;;;;;;;3.98;0.82;;;;;;;12.23;68.92;99767.67;1699836;82;21070;-57
2021/09/20 08:20:28;;;;;;;2.67;1.05;;;;;;;12.29;69.01;99770.70;1701569;82;22430;-56
2021/09/20 08:22:55;;;;;;;3.22;1.05;;;;;;;12.36;68.25;99781.02;1743150;80;21058;-66
2021/09/20 08:25:23;;;;;;;3.00;1.15;;;;;;;12.37;68.03;99774.27;1724514;81;21548;-63
2021/09/20 08:27:50;;;;;;;4.25;1.20;;;;;;;12.43;68.29;99775.47;1737483;81;22713;-63
2021/09/20 08:30:19;;;;;;;3.90;1.45;;;;;;;12.51;67.81;99774.23;1741789;81;21493;-63
2021/09/20 08:32:45;;;;;;;5.47;1.42;;;;;;;12.52;67.63;99779.02;1740196;80;21639;-65
2021/09/20 08:35:14;;;;;;;3.50;1.27;;;;;;;12.52;67.78;99772.42;1738330;81;21989;-65
2021/09/20 08:37:40;;;;;;;3.87;1.30;;;;;;;12.45;67.57;99782.24;1704443;82;21035;-66
2021/09/20 08:40:10;;;;;;;2.83;0.93;;;;;;;12.43;67.97;99774.97;1742124;80;21038;-68
2021/09/20 08:42:38;;;;;;;5.30;1.45;;;;;;;12.48;68.04;99773.21;1738408;80;21051;-65
2021/09/20 08:45:07;;;;;;;3.12;1.20;;;;;;;12.55;67.68;99775.58;1742382;81;21032;-63
2021/09/20 08:47:37;;;;;;;4.12;1.12;;;;;;;12.62;67.85;99790.33;1740786;80;21048;-64
2021/09/20 08:50:04;;;;;;;6.05;1.25;;;;;;;12.63;67.37;99785.40;1713179;82;21027;-72
2021/09/20 08:52:31;;;;;;;4.92;1.40;;;;;;;12.62;67.44;99786.37;1700471;83;21059;-70
2021/09/20 08:54:58;;;;;;;2.70;1.02;;;;;;;12.70;67.22;99786.45;1666475;83;21122;-63
2021/09/20 08:57:25;;;;;;;3.20;1.00;;;;;;;12.87;66.61;99795.84;1688968;83;21559;-64
2021/09/20 08:59:53;;;;;;;2.77;1.07;;;;;;;12.94;66.62;99796.38;1692857;83;21008;-59
2021/09/20 09:02:21;;;;;;;3.70;1.20;;;;;;;12.99;66.33;99794.14;1693982;83;21053;-64
2021/09/20 09:04:48;;;;;;;3.17;1.05;;;;;;;13.08;66.37;99800.78;1694871;83;21145;-63
2021/09/20 09:07:19;;;;;;;6.58;1.27;;;;;;;13.10;65.98;99808.08;1690173;83;21154;-63
2021/09/20 09:09:48;;;;;;;2.37;0.90;;;;;;;13.10;66.07;99812.05;1686353;83;21040;-63
2021/09/20 09:12:25;;;;;;;3.85;1.10;;;;;;;13.12;65.76;99805.61;1685565;83;21059;-62
2021/09/20 09:15:01;;;;;;;2.12;0.62;;;;;;;13.20;65.67;99814.10;1694893;82;22727;-63
2021/09/20 09:17:36;;;;;;;3.20;0.95;;;;;;;13.20;65.70;99810.95;1695576;82;21157;-61
2021/09/20 09:20:10;;;;;;;3.17;1.12;;;;;;;13.23;65.49;99830.12;1693192;82;22238;-62
2021/09/20 09:22:51;;;;;;;2.55;1.00;;;;;;;13.22;65.52;99824.52;1695184;82;21091;-62
2021/09/20 09:25:37;;;;;;;4.72;1.17;;;;;;;13.22;65.70;99842.51;1692729;82;22814;-61
2021/09/20 09:28:25;;;;;;;3.50;1.13;;;;;;;13.24;65.61;99831.79;1661368;83;21094;-62
2021/09/20 09:30:58;;;;;;;2.35;0.90;;;;;;;13.26;65.15;99834.59;1695241;82;21062;-62
2021/09/20 09:33:36;;;;;;;2.98;0.90;;;;;;;13.32;65.06;99835.84;1696244;83;21742;-62
2021/09/20 09:36:05;;;;;;;3.08;0.93;;;;;;;13.34;65.02;99834.69;1675451;83;21071;-61
2021/09/20 09:38:32;;;;;;;2.27;0.88;;;;;;;13.32;64.86;99841.13;1702941;83;21098;-62
2021/09/20 09:41:03;;;;;;;2.90;0.88;;;;;;;13.29;65.23;99849.33;1677670;83;21061;-62
2021/09/20 09:43:37;;;;;;;3.45;1.07;;;;;;;13.25;65.29;99836.10;1704297;83;21011;-64
2021/09/20 09:46:24;;;;;;;5.33;1.50;;;;;;;13.24;65.44;99844.50;1698325;83;21157;-62
2021/09/20 09:48:55;;;;;;;2.72;0.93;;;;;;;13.28;65.80;99842.38;1692711;83;21519;-62
2021/09/20 09:51:22;;;;;;;2.75;0.80;;;;;;;13.41;65.82;99848.63;1697069;82;21519;-63
2021/09/20 09:53:50;;;;;;;4.42;1.52;;;;;;;13.49;66.17;99849.50;1669601;83;21101;-60
2021/09/20 09:56:21;;;;;;;3.85;1.07;;;;;;;13.52;65.51;99843.09;1720270;80;21062;-63
2021/09/20 09:59:07;;;;;;;2.85;0.90;;;;;;;13.57;65.41;99847.42;1666412;84;22157;-62
2021/09/20 10:01:37;;;;;;;3.95;0.95;;;;;;;13.65;65.13;99846.63;1643034;85;21615;-60
2021/09/20 10:04:12;;;;;;;2.35;0.72;;;;;;;13.77;64.29;99846.72;1655477;84;21098;-63
2021/09/20 10:06:47;;;;;;;1.77;0.60;;;;;;;13.87;63.53;99850.55;1656395;86;21076;-62
2021/09/20 10:09:22;;;;;;;3.22;0.62;;;;;;;13.97;63.33;99851.29;1640000;86;21715;-61
2021/09/20 10:11:52;;;;;;;2.17;0.78;;;;;;;14.03;62.65;99851.14;1670764;84;21704;-62
2021/09/20 10:14:19;;;;;;;2.05;0.70;;;;;;;14.04;62.81;99850.98;1705858;82;21101;-62
2021/09/20 10:16:50;;;;;;;3.12;0.80;;;;;;;14.07;63.16;99852.47;1701586;82;21415;-62
2021/09/20 10:19:16;;;;;;;2.08;0.70;;;;;;;14.11;63.27;99857.29;1679529;84;21529;-62
2021/09/20 10:21:43;;;;;;;3.83;0.85;;;;;;;14.10;62.76;99853.00;1701126;83;21137;-60
2021/09/20 10:24:14;;;;;;;2.75;0.85;;;;;;;14.10;62.82;99852.16;1700101;82;21103;-63
2021/09/20 10:26:43;;;;;;;3.67;0.93;;;;;;;14.13;63.36;99875.66;1681856;83;21097;-62
2021/09/20 10:29:17;;;;;;;4.42;0.98;;;;;;;14.16;63.06;99875.84;1712609;80;21137;-63
2021/09/20 10:31:46;;;;;;;1.50;0.50;;;;;;;14.09;63.18;99872.50;1735134;80;21145;-62
2021/09/20 10:34:24;;;;;;;4.15;1.80;;;;;;;14.03;63.66;99873.63;1736541;81;21566;-63
2021/09/20 10:37:07;;;;;;;2.58;0.90;;;;;;;14.00;64.11;99876.08;1736954;80;21051;-64
2021/09/20 10:39:48;;;;;;;4.33;1.15;;;;;;;14.00;64.40;99868.64;1713449;81;21050;-64
2021/09/20 10:42:49;;;;;;;2.62;0.80;;;;;;;13.99;64.42;99874.44;1736445;80;21110;-62
2021/09/20 10:45:45;;;;;;;3.05;0.80;;;;;;;13.99;64.04;99873.61;1739473;81;21070;-61
2021/09/20 10:48:27;;;;;;;3.83;0.88;;;;;;;14.01;64.04;99884.36;1721537;81;21057;-64
2021/09/20 10:51:18;;;;;;;2.72;0.88;;;;;;;13.99;62.92;99882.88;1737852;80;21157;-61
2021/09/20 10:53:45;;;;;;;3.22;1.12;;;;;;;13.88;63.85;99880.80;1739479;81;21415;-63
2021/09/20 10:56:15;;;;;;;3.58;0.80;;;;;;;13.81;64.71;99875.81;1736873;81;21135;-63
2021/09/20 10:58:56;;;;;;;2.33;0.70;;;;;;;13.87;64.95;99873.88;1741670;80;21082;-65
2021/09/20 11:01:30;;;;;;;2.10;0.75;;;;;;;13.99;64.68;99874.94;1705440;83;21549;-66
2021/09/20 11:04:03;;;;;;;2.58;0.70;;;;;;;14.05;64.45;99880.90;1701290;83;21118;-66
2021/09/20 11:06:39;;;;;;;1.72;0.60;;;;;;;14.12;63.76;99880.59;1696812;82;21059;-66
2021/09/20 11:09:12;;;;;;;1.72;0.65;;;;;;;14.19;63.80;99884.77;1697003;83;21172;-66
2021/09/20 11:14:20;;;;;;;4.22;1.75;;;;;;;14.21;63.32;99893.39;1746210;80;21075;-66
2021/09/20 11:17:01;;;;;;;3.62;1.42;;;;;;;14.20;63.30;99892.55;1733077;80;21138;-68
2021/09/20 11:19:34;;;;;;;2.50;0.90;;;;;;;14.15;62.24;99894.84;1703780;81;21132;-65
2021/09/20 11:22:16;;;;;;;2.52;0.72;;;;;;;14.05;62.22;99888.33;1739285;80;21198;-66
2021/09/20 11:24:46;;;;;;;5.45;1.30;;;;;;;14.01;62.70;99902.05;1689748;83;21101;-64
2021/09/20 11:27:27;;;;;;;2.67;0.70;;;;;;;13.94;62.70;99900.53;1685569;83;21583;-67
2021/09/20 11:30:14;;;;;;;3.08;0.50;;;;;;;13.91;62.92;99901.66;1711615;82;21073;-67
2021/09/20 11:32:56;;;;;;;2.33;0.70;;;;;;;13.96;62.71;99901.70;1696150;82;21085;-65
2021/09/20 11:35:29;;;;;;;1.47;0.47;;;;;;;14.02;62.54;99893.97;1706997;82;21942;-65
2021/09/20 11:37:59;;;;;;;2.08;0.75;;;;;;;14.09;62.14;99908.72;1708789;82;21074;-65
2021/09/20 11:40:29;;;;;;;2.67;0.72;;;;;;;14.07;61.75;99895.64;1705318;83;21067;-65
2021/09/20 11:43:01;;;;;;;4.10;1.32;;;;;;;14.06;61.93;99901.09;1705883;83;21078;-65
2021/09/20 11:45:35;;;;;;;1.15;0.45;;;;;;;14.09;61.65;99901.59;1681856;83;21658;-65
2021/09/20 11:48:10;;;;;;;2.27;0.90;;;;;;;14.13;61.01;99900.78;1652650;83;21076;-64